Time;durP1;ratioP1;P1;durP2;ratioP2;P2;SDS_P1;SDS_P2;PMS_P1;PMS_P2;Temp;Humidity;BMP_temperature;BMP_pressure;BME280_temperature;BME280_humidity;BME280_pressure;Samples;Min_cycle;Max_cycle;Signal;HPM_P1;HPM_P2
2023/05/07 00:01:23;;;;;;;23.70;13.35;;;;;;;6.88;100.00;102185.63;4949697;28;20174;-51
2023/05/07 00:03:48;;;;;;;25.00;13.13;;;;;;;6.94;100.00;102177.63;4951030;28;20626;-51
2023/05/07 00:06:14;;;;;;;19.35;11.75;;;;;;;6.98;100.00;102184.72;4947111;29;20182;-48
2023/05/07 00:08:40;;;;;;;21.10;13.25;;;;;;;6.93;100.00;102173.19;4950222;29;20637;-48
2023/05/07 00:11:05;;;;;;;25.75;14.30;;;;;;;6.93;100.00;102183.84;4950231;29;20193;-49
2023/05/07 00:13:35;;;;;;;24.33;13.68;;;;;;;6.94;100.00;102185.63;4951271;28;20179;-49
2023/05/07 00:16:04;;;;;;;19.83;12.82;;;;;;;7.01;100.00;102182.03;4953838;29;20281;-49
2023/05/07 00:18:30;;;;;;;25.33;13.77;;;;;;;7.09;100.00;102184.72;4954283;29;20183;-48
2023/05/07 00:20:56;;;;;;;26.80;13.13;;;;;;;7.06;100.00;102184.69;4953776;29;20296;-49
2023/05/07 00:23:23;;;;;;;16.15;12.00;;;;;;;7.05;100.00;102176.72;4953717;29;20210;-50
2023/05/07 00:25:48;;;;;;;21.88;12.75;;;;;;;6.97;100.00;102174.94;4953512;29;20178;-49
2023/05/07 00:28:14;;;;;;;19.52;13.15;;;;;;;7.04;100.00;102183.84;4953648;29;20204;-49
2023/05/07 00:30:39;;;;;;;20.08;13.20;;;;;;;6.98;100.00;102182.06;4954154;29;20557;-49
2023/05/07 00:33:05;;;;;;;19.58;12.43;;;;;;;7.08;100.00;102177.59;4936131;29;20210;-48
2023/05/07 00:35:30;;;;;;;20.70;13.45;;;;;;;7.06;100.00;102174.03;4926929;29;20230;-49
2023/05/07 00:37:56;;;;;;;20.85;14.13;;;;;;;7.06;100.00;102178.50;4952949;29;20211;-51
2023/05/07 00:40:22;;;;;;;19.02;13.38;;;;;;;7.07;100.00;102173.16;4953560;29;20210;-51
2023/05/07 00:42:48;;;;;;;21.40;13.40;;;;;;;7.09;100.00;102186.50;4952869;29;20675;-50
2023/05/07 00:45:15;;;;;;;21.02;14.05;;;;;;;7.10;100.00;102175.81;4935451;29;20596;-49
2023/05/07 00:47:41;;;;;;;19.63;14.32;;;;;;;7.06;100.00;102181.16;4953021;29;20185;-52
2023/05/07 00:50:09;;;;;;;21.65;14.63;;;;;;;7.08;100.00;102180.25;4952852;29;20224;-50
2023/05/07 00:52:37;;;;;;;20.73;13.70;;;;;;;7.12;100.00;102168.69;4953445;29;20245;-50
2023/05/07 00:55:05;;;;;;;19.85;13.65;;;;;;;7.06;100.00;102168.72;4940652;29;20220;-51
2023/05/07 00:57:36;;;;;;;19.23;13.77;;;;;;;7.09;100.00;102171.38;4935124;29;20532;-51
2023/05/07 01:00:04;;;;;;;20.42;13.93;;;;;;;7.10;100.00;102172.25;4952943;29;20179;-51
2023/05/07 01:02:30;;;;;;;19.95;14.27;;;;;;;7.10;100.00;102173.16;4953206;29;20222;-50
2023/05/07 01:04:56;;;;;;;22.02;14.23;;;;;;;7.14;100.00;102172.25;4953010;29;20677;-49
2023/05/07 01:07:23;;;;;;;18.02;13.88;;;;;;;7.20;100.00;102160.69;4952841;29;20577;-51
2023/05/07 01:09:49;;;;;;;21.85;14.48;;;;;;;7.20;100.00;102174.03;4953180;29;20191;-51
2023/05/07 01:12:15;;;;;;;18.75;15.02;;;;;;;7.22;100.00;102165.13;4952330;29;20277;-51
2023/05/07 01:14:41;;;;;;;21.27;13.52;;;;;;;7.18;100.00;102179.34;4933707;29;20242;-50
2023/05/07 01:17:08;;;;;;;19.60;14.35;;;;;;;7.25;100.00;102179.34;4953166;29;20671;-51
2023/05/07 01:19:34;;;;;;;19.33;14.20;;;;;;;7.23;100.00;102163.34;4934946;29;20186;-51
2023/05/07 01:22:08;;;;;;;21.20;13.77;;;;;;;7.23;100.00;102168.69;4953325;29;20899;-51
2023/05/07 01:24:43;;;;;;;16.52;14.45;;;;;;;7.20;100.00;102166.91;4928590;29;20281;-51
2023/05/07 01:27:08;;;;;;;17.45;14.02;;;;;;;7.21;100.00;102162.47;4935665;29;20369;-52
2023/05/07 01:29:36;;;;;;;23.10;14.55;;;;;;;7.19;100.00;102162.50;4957789;28;20191;-52
2023/05/07 01:32:03;;;;;;;20.10;14.23;;;;;;;7.19;100.00;102164.25;4950517;29;20203;-50
2023/05/07 01:37:08;;;;;;;16.08;13.57;;;;;;;7.25;100.00;102161.56;3511913;23;20719;-47
2023/05/07 01:39:38;;;;;;;17.00;14.02;;;;;;;7.21;100.00;102157.13;4963895;28;20202;-46
2023/05/07 01:42:04;;;;;;;15.85;14.13;;;;;;;7.23;100.00;102145.56;4936944;28;20574;-45
2023/05/07 01:44:30;;;;;;;19.25;14.07;;;;;;;7.21;100.00;102162.47;4944173;29;20201;-44
2023/05/07 01:46:57;;;;;;;18.55;14.05;;;;;;;7.26;100.00;102163.34;4964096;28;20178;-45
2023/05/07 01:49:22;;;;;;;17.73;13.48;;;;;;;7.25;100.00;102158.03;4965204;28;20175;-48
2023/05/07 01:51:48;;;;;;;17.05;14.27;;;;;;;7.22;100.00;102165.13;4958717;28;20657;-47
2023/05/07 01:54:14;;;;;;;18.10;14.40;;;;;;;7.22;100.00;102167.78;4944027;28;20183;-46
2023/05/07 01:56:41;;;;;;;18.38;14.30;;;;;;;7.24;100.00;102162.47;4944755;28;20643;-46
2023/05/07 01:59:06;;;;;;;17.23;14.45;;;;;;;7.27;100.00;102161.56;4946240;29;20195;-46
2023/05/07 02:01:32;;;;;;;18.90;14.68;;;;;;;7.26;100.00;102157.13;4961111;28;20232;-44
2023/05/07 02:03:57;;;;;;;17.63;14.52;;;;;;;7.26;100.00;102166.03;4946609;28;20180;-44
2023/05/07 02:06:26;;;;;;;16.63;14.38;;;;;;;7.25;100.00;102169.56;4948886;28;20179;-46
2023/05/07 02:08:56;;;;;;;16.42;14.73;;;;;;;7.25;100.00;102158.91;4953362;28;20679;-47
2023/05/07 02:11:21;;;;;;;16.55;14.10;;;;;;;7.27;100.00;102169.56;4957429;28;20257;-46
2023/05/07 02:13:47;;;;;;;14.77;13.27;;;;;;;7.31;100.00;102172.22;4956159;28;20288;-46
2023/05/07 02:16:14;;;;;;;15.20;13.63;;;;;;;7.28;100.00;102168.66;4926769;28;20250;-47
2023/05/07 02:18:39;;;;;;;15.20;13.48;;;;;;;7.26;100.00;102176.69;4959888;28;20208;-46
2023/05/07 02:21:05;;;;;;;15.35;12.38;;;;;;;7.28;100.00;102177.56;4956929;28;20265;-45
2023/05/07 02:23:31;;;;;;;15.57;13.00;;;;;;;7.29;100.00;102186.44;4942947;29;20171;-46
2023/05/07 02:25:56;;;;;;;14.27;12.80;;;;;;;7.28;100.00;102174.00;4965534;28;20582;-47
2023/05/07 02:28:22;;;;;;;14.82;12.52;;;;;;;7.35;100.00;102184.66;4961038;28;20270;-46
2023/05/07 02:30:55;;;;;;;13.40;12.00;;;;;;;7.32;100.00;102189.09;4946024;28;20260;-47
2023/05/07 02:33:21;;;;;;;16.10;12.23;;;;;;;7.33;100.00;102188.22;4961258;28;20305;-46
2023/05/07 02:35:47;;;;;;;12.80;11.55;;;;;;;7.29;100.00;102194.44;4947352;28;20751;-47
2023/05/07 02:38:14;;;;;;;12.68;11.48;;;;;;;7.33;100.00;102197.09;4956616;28;20184;-46
2023/05/07 02:40:40;;;;;;;12.27;11.07;;;;;;;7.34;100.00;102185.53;4964464;28;20182;-46
2023/05/07 02:43:06;;;;;;;13.05;11.57;;;;;;;7.35;100.00;102191.75;4943807;29;20194;-44
2023/05/07 02:45:32;;;;;;;13.70;12.18;;;;;;;7.36;100.00;102189.06;4948696;29;20187;-47
2023/05/07 02:47:58;;;;;;;12.02;10.93;;;;;;;7.37;100.00;102180.19;4938524;28;20221;-46
2023/05/07 02:50:25;;;;;;;12.38;11.18;;;;;;;7.38;100.00;102184.63;4944750;28;20206;-49
2023/05/07 02:52:50;;;;;;;11.95;10.75;;;;;;;7.49;100.00;102184.59;4947852;28;20313;-46
2023/05/07 02:55:16;;;;;;;11.70;10.70;;;;;;;7.43;100.00;102190.84;4951537;28;20709;-47
2023/05/07 02:57:42;;;;;;;12.60;11.30;;;;;;;7.41;100.00;102184.63;4962498;28;20194;-48
2023/05/07 03:00:16;;;;;;;11.77;10.68;;;;;;;7.41;100.00;102181.06;4942398;28;20539;-46
2023/05/07 03:02:48;;;;;;;11.80;10.55;;;;;;;7.38;100.00;102184.63;4930313;29;20207;-44
2023/05/07 03:05:14;;;;;;;12.05;10.73;;;;;;;7.42;100.00;102178.41;4944910;29;20177;-45
2023/05/07 03:07:44;;;;;;;11.88;10.68;;;;;;;7.38;100.00;102189.97;4957248;28;20188;-45
2023/05/07 03:10:09;;;;;;;12.68;10.95;;;;;;;7.38;100.00;102186.41;4944595;28;20193;-44
2023/05/07 03:12:35;;;;;;;11.60;10.35;;;;;;;7.38;100.00;102181.06;4938516;28;20572;-47
2023/05/07 03:15:01;;;;;;;12.25;10.98;;;;;;;7.39;100.00;102185.50;4962160;28;20202;-47
2023/05/07 03:17:26;;;;;;;10.95;9.95;;;;;;;7.37;100.00;102188.19;4939951;29;20633;-46
2023/05/07 03:19:52;;;;;;;12.38;10.90;;;;;;;7.39;100.00;102178.41;4959868;28;20302;-48
2023/05/07 03:22:18;;;;;;;12.50;10.95;;;;;;;7.42;100.00;102175.72;4946099;28;20210;-46
2023/05/07 03:24:43;;;;;;;11.65;10.45;;;;;;;7.40;100.00;102171.28;4962293;28;20261;-46
2023/05/07 03:27:09;;;;;;;11.48;10.38;;;;;;;7.42;100.00;102174.84;4946087;28;20193;-46
2023/05/07 03:29:35;;;;;;;12.95;10.77;;;;;;;7.39;100.00;102180.16;4946365;29;20211;-47
2023/05/07 03:32:00;;;;;;;12.27;11.00;;;;;;;7.37;100.00;102172.19;4961606;28;20201;-44
2023/05/07 03:34:27;;;;;;;14.68;10.63;;;;;;;7.36;100.00;102165.06;4948766;28;20220;-47
2023/05/07 03:36:52;;;;;;;11.95;10.30;;;;;;;7.39;100.00;102174.84;4957322;28;20210;-45
2023/05/07 03:39:18;;;;;;;10.88;9.43;;;;;;;7.41;100.00;102183.72;4942281;28;20179;-45
2023/05/07 03:41:44;;;;;;;10.82;9.77;;;;;;;7.40;100.00;102181.97;4961826;28;20591;-48
2023/05/07 03:44:10;;;;;;;11.23;9.68;;;;;;;7.46;100.00;102181.06;4948157;29;20301;-47
2023/05/07 03:46:36;;;;;;;10.73;9.40;;;;;;;7.42;100.00;102181.06;4946551;28;20709;-47
2023/05/07 03:49:02;;;;;;;11.15;9.95;;;;;;;7.40;100.00;102185.50;4948257;28;20645;-46
2023/05/07 03:51:28;;;;;;;11.30;9.73;;;;;;;7.42;100.00;102182.84;4952279;28;20277;-47
2023/05/07 03:53:54;;;;;;;10.45;9.35;;;;;;;7.40;100.00;102174.84;4952315;28;20174;-47
2023/05/07 03:56:20;;;;;;;12.70;9.48;;;;;;;7.49;100.00;102175.72;4964919;28;20614;-46
2023/05/07 03:58:50;;;;;;;10.05;9.05;;;;;;;7.43;100.00;102184.59;4933311;29;20241;-49
2023/05/07 04:01:16;;;;;;;10.45;9.20;;;;;;;7.40;100.00;102185.50;4949820;28;20178;-45
2023/05/07 04:03:41;;;;;;;10.07;9.13;;;;;;;7.48;100.00;102173.91;4963922;28;20182;-46
2023/05/07 04:06:07;;;;;;;9.88;8.88;;;;;;;7.42;100.00;102178.41;4950626;29;20233;-48
2023/05/07 04:08:34;;;;;;;9.85;8.60;;;;;;;7.49;100.00;102181.94;4931622;28;20704;-45
2023/05/07 04:11:01;;;;;;;10.98;8.82;;;;;;;7.53;100.00;102186.34;4945225;28;20618;-45
2023/05/07 04:13:30;;;;;;;9.60;8.70;;;;;;;7.52;100.00;102183.69;4951360;29;20257;-47
2023/05/07 04:15:56;;;;;;;13.95;9.23;;;;;;;7.53;100.00;102186.34;4952840;28;20286;-46
2023/05/07 04:18:23;;;;;;;10.05;8.75;;;;;;;7.57;100.00;102188.13;4944470;28;20237;-46
2023/05/07 04:20:49;;;;;;;9.65;8.75;;;;;;;7.60;100.00;102179.22;4946683;29;20179;-48
2023/05/07 04:23:15;;;;;;;10.85;9.77;;;;;;;7.53;100.00;102186.34;4940661;29;20203;-46
2023/05/07 04:25:41;;;;;;;12.15;10.00;;;;;;;7.56;100.00;102189.00;4939698;29;20186;-46
2023/05/07 04:28:18;;;;;;;10.45;9.45;;;;;;;7.55;100.00;102199.69;4950560;28;20192;-42
2023/05/07 04:30:44;;;;;;;13.30;9.77;;;;;;;7.56;100.00;102196.13;4951164;28;20182;-46
2023/05/07 04:33:11;;;;;;;13.98;10.18;;;;;;;7.53;100.00;102198.81;4949163;28;20285;-47
2023/05/07 04:35:39;;;;;;;12.07;9.90;;;;;;;7.52;100.00;102213.94;4941628;29;20202;-44
2023/05/07 04:38:05;;;;;;;11.60;10.50;;;;;;;7.51;100.00;102216.59;4939401;29;20218;-44
2023/05/07 04:40:31;;;;;;;11.23;9.52;;;;;;;7.56;100.00;102218.34;4939865;28;20207;-44
2023/05/07 04:42:56;;;;;;;14.55;9.80;;;;;;;7.64;100.00;102208.53;4949904;29;20241;-46
2023/05/07 04:45:22;;;;;;;14.25;10.20;;;;;;;7.51;100.00;102216.59;4959361;28;20267;-48
2023/05/07 04:47:49;;;;;;;11.88;9.43;;;;;;;7.57;100.00;102211.25;4932164;28;20704;-45
2023/05/07 04:50:15;;;;;;;10.90;9.38;;;;;;;7.52;100.00;102215.69;4952898;29;20183;-47
2023/05/07 04:52:42;;;;;;;10.75;8.80;;;;;;;7.54;100.00;102213.91;4937378;28;20217;-44
2023/05/07 04:55:08;;;;;;;10.10;9.20;;;;;;;7.58;100.00;102208.56;4966688;28;20206;-44
2023/05/07 04:57:39;;;;;;;10.95;9.00;;;;;;;7.61;100.00;102221.03;4939380;29;20267;-45
2023/05/07 05:00:05;;;;;;;11.32;9.07;;;;;;;7.55;100.00;102219.25;4959331;28;20260;-43
2023/05/07 05:02:34;;;;;;;13.00;9.10;;;;;;;7.58;100.00;102219.22;4948610;29;20238;-42
2023/05/07 05:05:02;;;;;;;9.52;8.55;;;;;;;7.60;100.00;102229.91;4930957;28;20595;-44
2023/05/07 05:07:28;;;;;;;12.65;9.43;;;;;;;7.57;100.00;102225.47;4945069;28;20221;-44
2023/05/07 05:09:55;;;;;;;9.65;8.75;;;;;;;7.62;100.00;102229.00;4941671;28;20617;-45
2023/05/07 05:12:21;;;;;;;10.32;9.27;;;;;;;7.56;100.00;102222.78;4945106;28;20257;-47
2023/05/07 05:14:47;;;;;;;10.73;9.45;;;;;;;7.56;100.00;102228.13;4957187;28;20178;-45
2023/05/07 05:17:13;;;;;;;11.93;9.77;;;;;;;7.56;100.00;102230.78;4948593;28;20177;-43
2023/05/07 05:19:38;;;;;;;10.77;9.32;;;;;;;7.55;100.00;102229.91;4955581;28;20268;-46
2023/05/07 05:22:04;;;;;;;11.75;9.15;;;;;;;7.62;100.00;102230.78;4957863;28;20250;-46
2023/05/07 05:24:30;;;;;;;10.32;9.32;;;;;;;7.56;100.00;102231.66;4965464;28;20170;-44
2023/05/07 05:26:56;;;;;;;10.77;8.73;;;;;;;7.54;100.00;102237.91;4954328;28;20178;-45
2023/05/07 05:29:22;;;;;;;9.73;8.55;;;;;;;7.68;100.00;102224.56;4950343;28;20202;-46
2023/05/07 05:31:48;;;;;;;9.85;8.65;;;;;;;7.61;100.00;102239.69;4949536;28;20604;-45
2023/05/07 05:34:13;;;;;;;10.30;9.00;;;;;;;7.59;100.00;102233.47;4939853;29;20565;-47
2023/05/07 05:36:40;;;;;;;13.02;9.00;;;;;;;7.56;100.00;102239.66;4950255;28;20214;-46
2023/05/07 05:39:06;;;;;;;11.80;8.85;;;;;;;7.57;100.00;102244.13;4967137;28;20178;-47
2023/05/07 05:41:32;;;;;;;10.30;9.30;;;;;;;7.60;100.00;102243.22;4961480;28;20202;-46
2023/05/07 05:43:58;;;;;;;11.68;8.95;;;;;;;7.72;100.00;102243.19;4966127;28;20557;-47
2023/05/07 05:46:24;;;;;;;10.95;8.32;;;;;;;7.73;100.00;102242.28;4959154;28;20175;-45
2023/05/07 05:48:50;;;;;;;12.57;8.65;;;;;;;7.88;100.00;102240.47;4960489;28;20544;-46
2023/05/07 05:51:16;;;;;;;9.02;8.10;;;;;;;7.87;100.00;102246.69;4955545;28;20183;-44
2023/05/07 05:53:42;;;;;;;10.90;9.48;;;;;;;7.83;100.00;102244.03;4956365;28;20186;-43
2023/05/07 05:56:07;;;;;;;10.77;8.65;;;;;;;7.87;100.00;102249.34;4958561;28;20258;-45
2023/05/07 05:58:34;;;;;;;9.77;8.80;;;;;;;7.89;100.00;102239.56;4967278;28;20627;-44
2023/05/07 06:01:05;;;;;;;10.75;8.55;;;;;;;7.93;100.00;102246.66;4963855;28;20273;-44
2023/05/07 06:03:32;;;;;;;12.07;8.73;;;;;;;7.97;100.00;102248.44;4963736;28;20206;-47
2023/05/07 06:06:00;;;;;;;10.88;8.40;;;;;;;7.98;100.00;102239.50;4958187;28;20186;-47
2023/05/07 06:08:30;;;;;;;9.43;8.25;;;;;;;8.07;100.00;102244.84;4954937;28;20186;-47
2023/05/07 06:10:56;;;;;;;8.88;7.97;;;;;;;8.05;100.00;102247.50;4962649;28;20318;-44
2023/05/07 06:13:22;;;;;;;8.82;7.82;;;;;;;7.98;100.00;102250.19;4964526;28;20328;-47
2023/05/07 06:15:50;;;;;;;9.10;8.10;;;;;;;8.02;100.00;102252.88;4965954;28;20201;-45
2023/05/07 06:18:15;;;;;;;10.27;8.27;;;;;;;8.13;100.00;102246.56;4952153;28;20193;-45
2023/05/07 06:20:41;;;;;;;10.23;8.32;;;;;;;8.13;100.00;102247.44;4961359;28;20567;-44
2023/05/07 06:23:12;;;;;;;8.95;8.05;;;;;;;8.15;100.00;102252.78;4947328;28;20559;-47
2023/05/07 06:25:37;;;;;;;9.57;8.68;;;;;;;8.08;100.00;102246.59;4935599;29;20178;-43
2023/05/07 06:28:03;;;;;;;9.70;8.68;;;;;;;8.07;100.00;102249.25;4968264;28;20603;-47
2023/05/07 06:30:30;;;;;;;9.00;8.10;;;;;;;8.13;100.00;102263.47;4964811;28;20177;-48
2023/05/07 06:32:56;;;;;;;9.48;8.38;;;;;;;8.21;100.00;102252.75;4967784;28;20646;-45
2023/05/07 06:35:22;;;;;;;9.52;8.60;;;;;;;8.28;100.00;102258.94;4956661;28;20210;-46
2023/05/07 06:37:47;;;;;;;9.02;8.13;;;;;;;8.34;100.00;102251.78;4964074;28;20194;-47
2023/05/07 06:40:18;;;;;;;9.32;8.13;;;;;;;8.23;100.00;102251.84;4959615;28;20235;-47
2023/05/07 06:42:45;;;;;;;9.90;8.15;;;;;;;8.36;100.00;102246.44;4956555;28;20237;-43
2023/05/07 06:45:43;;;;;;;8.90;8.10;;;;;;;8.37;100.00;102256.22;4938749;28;20623;-45
2023/05/07 06:48:10;;;;;;;9.13;8.27;;;;;;;8.43;100.00;102257.09;4956980;28;20630;-47
2023/05/07 06:50:48;;;;;;;8.80;7.63;;;;;;;8.45;100.00;102244.63;4961900;28;20539;-47
2023/05/07 06:53:14;;;;;;;8.32;7.53;;;;;;;8.49;100.00;102248.16;4959851;28;20576;-44
2023/05/07 06:55:41;;;;;;;9.07;8.07;;;;;;;8.53;100.00;102254.38;4966552;28;20207;-47
2023/05/07 06:58:07;;;;;;;8.95;7.90;;;;;;;8.60;100.00;102262.34;4962429;28;20178;-44
2023/05/07 07:00:32;;;;;;;8.80;7.97;;;;;;;8.64;100.00;102240.03;4957796;28;20193;-45
2023/05/07 07:02:59;;;;;;;9.70;7.78;;;;;;;8.71;100.00;102238.22;4958779;28;20210;-48
2023/05/07 07:05:27;;;;;;;8.10;7.13;;;;;;;8.72;100.00;102242.63;4959513;28;20287;-47
2023/05/07 07:07:53;;;;;;;7.97;7.28;;;;;;;8.74;100.00;102243.50;4948844;28;20276;-49
2023/05/07 07:10:22;;;;;;;8.35;7.40;;;;;;;8.84;100.00;102250.56;4956214;28;20731;-48
2023/05/07 07:12:50;;;;;;;8.15;7.38;;;;;;;8.88;100.00;102254.13;4964779;28;20208;-49
2023/05/07 07:15:16;;;;;;;7.47;6.53;;;;;;;8.94;100.00;102254.03;4958851;28;20302;-49
2023/05/07 07:17:42;;;;;;;7.40;6.70;;;;;;;9.05;100.00;102244.16;4963052;28;20604;-47
2023/05/07 07:20:08;;;;;;;6.78;6.15;;;;;;;9.08;100.00;102246.78;4958363;28;20182;-50
2023/05/07 07:22:33;;;;;;;7.75;6.10;;;;;;;9.18;100.00;102236.91;4960784;28;20216;-49
2023/05/07 07:25:00;;;;;;;8.30;6.38;;;;;;;9.39;100.00;102238.47;4963507;28;20200;-48
2023/05/07 07:27:25;;;;;;;6.97;6.05;;;;;;;9.61;100.00;102238.22;4952726;28;20634;-49
2023/05/07 07:29:51;;;;;;;6.93;6.22;;;;;;;9.61;100.00;102255.16;4957061;28;20269;-49
2023/05/07 07:32:17;;;;;;;5.75;5.35;;;;;;;9.33;100.00;102238.53;4960744;28;20300;-47
2023/05/07 07:34:43;;;;;;;7.00;5.35;;;;;;;9.49;100.00;102234.78;4964028;28;20198;-46
2023/05/07 07:37:09;;;;;;;7.03;5.40;;;;;;;9.48;100.00;102246.38;4949036;28;20197;-49
2023/05/07 07:39:37;;;;;;;6.75;5.47;;;;;;;9.50;100.00;102246.38;4945480;28;20194;-47
2023/05/07 07:42:04;;;;;;;5.70;5.20;;;;;;;9.51;100.00;102237.47;4963952;28;20644;-47
2023/05/07 07:44:30;;;;;;;5.53;4.95;;;;;;;9.66;100.00;102244.41;4964471;28;20220;-46
2023/05/07 07:47:00;;;;;;;6.13;5.60;;;;;;;9.51;100.00;102244.59;4960555;28;20194;-47
2023/05/07 07:49:26;;;;;;;6.30;5.38;;;;;;;9.59;100.00;102235.56;4964610;28;20178;-47
2023/05/07 07:51:52;;;;;;;6.20;5.60;;;;;;;9.76;100.00;102239.84;4978860;28;20895;-46
2023/05/07 07:54:18;;;;;;;6.07;5.53;;;;;;;9.82;100.00;102240.66;4964489;28;20206;-47
2023/05/07 07:56:44;;;;;;;6.68;5.55;;;;;;;10.11;100.00;102240.25;4961130;28;20221;-48
2023/05/07 07:59:11;;;;;;;6.10;5.07;;;;;;;10.35;100.00;102240.00;4954558;28;20190;-49
2023/05/07 08:01:39;;;;;;;6.60;5.25;;;;;;;10.60;100.00;102244.03;4952903;28;20233;-49
2023/05/07 08:04:05;;;;;;;6.18;5.57;;;;;;;10.52;98.94;102245.97;4963317;28;20220;-50
2023/05/07 08:06:34;;;;;;;7.10;5.53;;;;;;;10.57;98.01;102228.03;4963362;28;20192;-50
2023/05/07 08:09:00;;;;;;;10.95;5.22;;;;;;;10.78;97.72;102229.47;4954200;28;20269;-49
2023/05/07 08:11:27;;;;;;;7.10;5.07;;;;;;;10.98;96.46;102218.41;4949108;28;20285;-48
2023/05/07 08:13:54;;;;;;;7.32;4.90;;;;;;;10.76;96.03;102220.59;4957468;28;20197;-48
2023/05/07 08:16:21;;;;;;;7.18;4.88;;;;;;;10.80;95.55;102219.63;4964026;28;20851;-50
2023/05/07 08:18:46;;;;;;;6.20;5.40;;;;;;;10.46;94.54;102213.91;4958998;28;20194;-50
2023/05/07 08:21:12;;;;;;;5.60;4.93;;;;;;;10.84;94.34;102218.63;4955169;28;20194;-48
2023/05/07 08:23:38;;;;;;;5.30;4.85;;;;;;;10.56;93.99;102218.22;4964418;28;20209;-47
2023/05/07 08:26:04;;;;;;;6.15;5.32;;;;;;;10.77;93.82;102218.78;4940395;28;20174;-49
2023/05/07 08:28:31;;;;;;;5.28;4.88;;;;;;;10.79;93.46;102212.47;4965890;28;20603;-50
2023/05/07 08:30:59;;;;;;;5.55;4.95;;;;;;;11.32;92.97;102210.59;4956228;28;20185;-49
2023/05/07 08:33:25;;;;;;;6.05;5.22;;;;;;;11.62;91.68;102194.81;4963272;28;20242;-46
2023/05/07 08:35:51;;;;;;;5.28;4.78;;;;;;;11.61;90.42;102194.84;4963700;28;20294;-46
2023/05/07 08:38:16;;;;;;;5.18;4.68;;;;;;;11.74;89.95;102202.63;4961957;28;20179;-44
2023/05/07 08:40:42;;;;;;;5.60;5.10;;;;;;;11.69;89.34;102198.25;4946670;28;20662;-44
2023/05/07 08:43:14;;;;;;;6.40;5.25;;;;;;;11.29;89.13;102218.72;4945003;28;20223;-45
2023/05/07 08:45:41;;;;;;;6.90;4.72;;;;;;;11.04;88.76;102210.25;4945363;28;20190;-45
2023/05/07 08:48:15;;;;;;;5.47;4.72;;;;;;;11.62;88.60;102215.41;4952723;28;20249;-44
2023/05/07 08:50:42;;;;;;;5.18;4.78;;;;;;;11.36;88.28;102221.31;4965136;28;20191;-44
2023/05/07 08:53:09;;;;;;;5.20;4.70;;;;;;;10.71;87.98;102220.66;4944738;28;20211;-43
2023/05/07 08:55:35;;;;;;;4.88;4.43;;;;;;;11.26;88.57;102229.53;4960503;28;20269;-47
2023/05/07 08:58:01;;;;;;;4.55;4.15;;;;;;;11.09;87.87;102216.41;4948751;28;20548;-45
2023/05/07 09:00:28;;;;;;;4.63;4.22;;;;;;;11.26;87.91;102221.47;4951012;28;20218;-45
2023/05/07 09:02:54;;;;;;;5.07;4.32;;;;;;;11.04;87.37;102226.34;4945019;28;20225;-47
2023/05/07 09:05:20;;;;;;;5.00;4.50;;;;;;;11.17;87.71;102215.38;4963827;28;20182;-44
2023/05/07 09:07:47;;;;;;;5.22;4.63;;;;;;;11.52;87.41;102223.66;4946663;28;20178;-46
2023/05/07 09:10:14;;;;;;;5.65;5.00;;;;;;;11.59;86.62;102226.19;4936398;28;20194;-43
2023/05/07 09:12:41;;;;;;;4.90;4.50;;;;;;;11.39;86.50;102208.72;4952702;28;20256;-44
2023/05/07 09:15:09;;;;;;;6.22;5.63;;;;;;;11.27;86.21;102231.28;4947565;28;20234;-43
2023/05/07 09:17:35;;;;;;;5.88;4.22;;;;;;;11.09;86.45;102227.16;4945834;28;20182;-45
2023/05/07 09:20:07;;;;;;;4.30;3.88;;;;;;;11.46;86.24;102239.88;4944395;28;20205;-43
2023/05/07 09:22:36;;;;;;;4.68;4.28;;;;;;;11.74;85.79;102234.84;4959770;28;20232;-45
2023/05/07 09:25:09;;;;;;;7.28;4.05;;;;;;;11.73;85.28;102216.09;4933178;28;20186;-46
2023/05/07 09:27:36;;;;;;;4.30;4.00;;;;;;;12.22;84.99;102232.97;4951725;28;20183;-47
2023/05/07 09:30:05;;;;;;;4.30;4.00;;;;;;;12.01;84.61;102229.84;4959579;28;20190;-45
2023/05/07 09:32:35;;;;;;;4.72;4.32;;;;;;;11.91;84.41;102215.72;4943869;28;20285;-44
2023/05/07 09:35:02;;;;;;;4.43;4.13;;;;;;;11.65;84.02;102229.66;4950343;28;20601;-44
2023/05/07 09:37:31;;;;;;;6.20;4.10;;;;;;;11.67;84.61;102218.88;4961647;28;20193;-44
2023/05/07 09:39:56;;;;;;;5.55;3.97;;;;;;;11.84;84.55;102221.22;4961412;28;20186;-46
2023/05/07 09:42:26;;;;;;;3.88;3.47;;;;;;;11.73;84.46;102224.13;4955357;28;20219;-42
2023/05/07 09:44:53;;;;;;;4.05;3.75;;;;;;;11.77;84.16;102225.84;4958073;28;20212;-45
2023/05/07 09:47:25;;;;;;;6.88;4.32;;;;;;;11.84;84.25;102226.59;4964868;28;20192;-47
2023/05/07 09:49:57;;;;;;;3.92;3.63;;;;;;;12.10;83.85;102228.75;4961170;28;20194;-44
2023/05/07 09:52:23;;;;;;;3.83;3.53;;;;;;;11.78;83.51;102224.91;4960713;28;20396;-44
2023/05/07 09:54:53;;;;;;;4.47;3.97;;;;;;;11.83;83.35;102211.38;4961834;28;20186;-43
2023/05/07 09:57:23;;;;;;;3.90;3.50;;;;;;;12.03;83.16;102227.13;4960864;28;20186;-44
2023/05/07 09:59:55;;;;;;;4.53;3.83;;;;;;;12.19;83.16;102214.22;4968796;28;20190;-46
2023/05/07 10:02:25;;;;;;;3.83;3.53;;;;;;;12.26;82.59;102223.91;4961752;28;20315;-44
2023/05/07 10:04:54;;;;;;;4.78;3.65;;;;;;;12.54;81.90;102210.72;4968515;28;20722;-45
2023/05/07 10:07:25;;;;;;;4.47;3.90;;;;;;;12.09;81.43;102203.69;4964545;28;20191;-44
2023/05/07 10:09:55;;;;;;;5.60;3.47;;;;;;;12.31;81.66;102208.56;4971583;28;20205;-46
2023/05/07 10:12:37;;;;;;;3.92;3.63;;;;;;;12.00;81.63;102221.81;4958924;28;20682;-44
2023/05/07 10:15:07;;;;;;;3.65;3.35;;;;;;;12.27;81.63;102218.50;4954430;28;20415;-44
2023/05/07 10:17:36;;;;;;;3.67;3.35;;;;;;;12.80;81.64;102209.19;4968477;28;20182;-44
2023/05/07 10:20:02;;;;;;;3.75;3.40;;;;;;;13.25;80.68;102201.72;4962303;28;20190;-44
2023/05/07 10:22:31;;;;;;;3.00;2.80;;;;;;;13.18;79.73;102206.38;4962949;28;20198;-44
2023/05/07 10:25:02;;;;;;;3.55;3.25;;;;;;;13.33;79.14;102206.91;4958685;28;20191;-45
2023/05/07 10:27:29;;;;;;;4.05;3.47;;;;;;;13.14;78.57;102199.31;4953318;28;20183;-47
2023/05/07 10:30:12;;;;;;;4.28;3.30;;;;;;;13.27;77.75;102197.19;4958241;28;20221;-47
2023/05/07 10:32:52;;;;;;;3.45;3.15;;;;;;;13.46;77.04;102188.59;4963095;28;20210;-45
2023/05/07 10:35:31;;;;;;;3.67;3.38;;;;;;;13.80;76.47;102191.22;4952959;28;20191;-46
2023/05/07 10:37:59;;;;;;;3.78;3.15;;;;;;;13.77;75.85;102189.50;4969388;28;20189;-45
2023/05/07 10:40:27;;;;;;;3.10;2.90;;;;;;;13.68;75.45;102189.75;4970507;28;20193;-44
2023/05/07 10:43:01;;;;;;;3.10;2.90;;;;;;;13.52;76.13;102183.94;4966828;28;20265;-47
2023/05/07 10:45:32;;;;;;;2.92;2.72;;;;;;;13.45;76.11;102189.53;4950207;28;20543;-45
2023/05/07 10:48:05;;;;;;;3.38;3.08;;;;;;;13.34;76.29;102184.47;4967700;28;20236;-45
2023/05/07 10:50:31;;;;;;;3.50;3.15;;;;;;;13.44;76.47;102177.88;4952608;29;20269;-44
2023/05/07 10:53:19;;;;;;;3.35;2.97;;;;;;;13.57;76.35;102186.47;4957590;28;20210;-45
2023/05/07 10:56:32;;;;;;;2.67;2.47;;;;;;;14.39;75.82;102182.19;4960550;28;20288;-43
2023/05/07 10:59:23;;;;;;;2.58;2.33;;;;;;;13.76;74.09;102173.38;4970075;28;20182;-51
2023/05/07 11:02:05;;;;;;;2.75;2.20;;;;;;;13.60;74.48;102168.44;4970368;28;20201;-45
2023/05/07 11:05:20;;;;;;;2.70;2.50;;;;;;;13.12;74.60;102171.56;4959692;28;20199;-46
2023/05/07 11:07:57;;;;;;;2.92;2.60;;;;;;;13.32;74.98;102167.47;4958549;28;20203;-47
2023/05/07 11:10:52;;;;;;;4.15;2.47;;;;;;;13.50;75.07;102175.00;4950974;29;20293;-48
2023/05/07 11:13:48;;;;;;;2.63;2.30;;;;;;;13.52;75.22;102174.97;4963480;28;20198;-46
2023/05/07 11:16:27;;;;;;;3.15;2.65;;;;;;;13.95;75.17;102187.13;4961259;28;20206;-45
2023/05/07 11:19:51;;;;;;;4.13;2.38;;;;;;;13.58;74.79;102164.03;4955305;28;20665;-46
2023/05/07 11:22:31;;;;;;;2.35;2.00;;;;;;;14.38;74.18;102166.91;4947065;29;20210;-47
2023/05/07 11:25:21;;;;;;;2.40;2.20;;;;;;;14.19;74.15;102162.13;4951733;29;20183;-43
2023/05/07 11:27:54;;;;;;;2.83;2.40;;;;;;;14.18;73.66;102162.19;4952586;28;20276;-46